legislation_cosponsors
Data license: Public Domain (U.S. Government data) · Data source: Federal Register API & Regulations.gov API
68 rows where bill_id = "111-hr-4971" sorted by sponsorship_date descending
This data as json, CSV (advanced)
Suggested facets: party, state, sponsorship_date, sponsorship_date (date)
| Link | bill_id | bioguide_id | full_name | party | state | sponsorship_date ▲ | is_original_cosponsor |
|---|---|---|---|---|---|---|---|
| 111-hr-4971,N000147 | Greening Food Deserts Act 111-hr-4971 | N000147 | Del. Norton, Eleanor Holmes [D-DC-At Large] | D | DC | 2010-09-29 | 0 |
| 111-hr-4971,F000339 | Greening Food Deserts Act 111-hr-4971 | F000339 | Rep. Frank, Barney [D-MA-4] | D | MA | 2010-09-29 | 0 |
| 111-hr-4971,W000207 | Greening Food Deserts Act 111-hr-4971 | W000207 | Rep. Watt, Melvin L. [D-NC-12] | D | NC | 2010-09-29 | 0 |
| 111-hr-4971,G000410 | Greening Food Deserts Act 111-hr-4971 | G000410 | Rep. Green, Gene [D-TX-29] | D | TX | 2010-09-29 | 0 |
| 111-hr-4971,B000410 | Greening Food Deserts Act 111-hr-4971 | B000410 | Rep. Berman, Howard L. [D-CA-28] | D | CA | 2010-07-30 | 0 |
| 111-hr-4971,L000557 | Greening Food Deserts Act 111-hr-4971 | L000557 | Rep. Larson, John B. [D-CT-1] | D | CT | 2010-07-30 | 0 |
| 111-hr-4971,S000030 | Greening Food Deserts Act 111-hr-4971 | S000030 | Rep. Sanchez, Loretta [D-CA-47] | D | CA | 2010-07-30 | 0 |
| 111-hr-4971,D000355 | Greening Food Deserts Act 111-hr-4971 | D000355 | Rep. Dingell, John D. [D-MI-15] | D | MI | 2010-07-30 | 0 |
| 111-hr-4971,B001231 | Greening Food Deserts Act 111-hr-4971 | B001231 | Rep. Berkley, Shelley [D-NV-1] | D | NV | 2010-07-30 | 0 |
| 111-hr-4971,C001078 | Greening Food Deserts Act 111-hr-4971 | C001078 | Rep. Connolly, Gerald E. [D-VA-11] | D | VA | 2010-07-30 | 0 |
| 111-hr-4971,H001038 | Greening Food Deserts Act 111-hr-4971 | H001038 | Rep. Higgins, Brian [D-NY-27] | D | NY | 2010-07-30 | 0 |
| 111-hr-4971,C001038 | Greening Food Deserts Act 111-hr-4971 | C001038 | Rep. Crowley, Joseph [D-NY-7] | D | NY | 2010-07-30 | 0 |
| 111-hr-4971,D000599 | Greening Food Deserts Act 111-hr-4971 | D000599 | Rep. Davis, Lincoln [D-TN-4] | D | TN | 2010-07-30 | 0 |
| 111-hr-4971,C001068 | Greening Food Deserts Act 111-hr-4971 | C001068 | Rep. Cohen, Steve [D-TN-9] | D | TN | 2010-07-30 | 0 |
| 111-hr-4971,M001163 | Greening Food Deserts Act 111-hr-4971 | M001163 | Rep. Matsui, Doris O. [D-CA-5] | D | CA | 2010-07-30 | 0 |
| 111-hr-4971,B000420 | Greening Food Deserts Act 111-hr-4971 | B000420 | Rep. Berry, Marion [D-AR-1] | D | AR | 2010-07-30 | 0 |
| 111-hr-4971,P000034 | Greening Food Deserts Act 111-hr-4971 | P000034 | Rep. Pallone, Frank, Jr. [D-NJ-6] | D | NJ | 2010-07-30 | 0 |
| 111-hr-4971,S001145 | Greening Food Deserts Act 111-hr-4971 | S001145 | Rep. Schakowsky, Janice D. [D-IL-9] | D | IL | 2010-07-30 | 0 |
| 111-hr-4971,B001230 | Greening Food Deserts Act 111-hr-4971 | B001230 | Rep. Baldwin, Tammy [D-WI-2] | D | WI | 2010-07-30 | 0 |
| 111-hr-4971,S001170 | Greening Food Deserts Act 111-hr-4971 | S001170 | Rep. Shea-Porter, Carol [D-NH-1] | D | NH | 2010-07-30 | 0 |
| 111-hr-4971,S001165 | Greening Food Deserts Act 111-hr-4971 | S001165 | Rep. Sires, Albio [D-NJ-13] | D | NJ | 2010-07-30 | 0 |
| 111-hr-4971,P000597 | Greening Food Deserts Act 111-hr-4971 | P000597 | Rep. Pingree, Chellie [D-ME-1] | D | ME | 2010-07-15 | 0 |
| 111-hr-4971,H001042 | Greening Food Deserts Act 111-hr-4971 | H001042 | Rep. Hirono, Mazie K. [D-HI-2] | D | HI | 2010-07-15 | 0 |
| 111-hr-4971,H000627 | Greening Food Deserts Act 111-hr-4971 | H000627 | Rep. Hinchey, Maurice D. [D-NY-22] | D | NY | 2010-07-15 | 0 |
| 111-hr-4971,L000480 | Greening Food Deserts Act 111-hr-4971 | L000480 | Rep. Lowey, Nita M. [D-NY-18] | D | NY | 2010-07-15 | 0 |
| 111-hr-4971,M000933 | Greening Food Deserts Act 111-hr-4971 | M000933 | Rep. Moran, James P. [D-VA-8] | D | VA | 2010-07-15 | 0 |
| 111-hr-4971,B000574 | Greening Food Deserts Act 111-hr-4971 | B000574 | Rep. Blumenauer, Earl [D-OR-3] | D | OR | 2010-06-10 | 0 |
| 111-hr-4971,C000714 | Greening Food Deserts Act 111-hr-4971 | C000714 | Rep. Conyers, John, Jr. [D-MI-14] | D | MI | 2010-06-10 | 0 |
| 111-hr-4971,W000187 | Greening Food Deserts Act 111-hr-4971 | W000187 | Rep. Waters, Maxine [D-CA-35] | D | CA | 2010-06-10 | 0 |
| 111-hr-4971,S000480 | Greening Food Deserts Act 111-hr-4971 | S000480 | Rep. Slaughter, Louise McIntosh [D-NY-28] | D | NY | 2010-06-10 | 0 |
| 111-hr-4971,C000537 | Greening Food Deserts Act 111-hr-4971 | C000537 | Rep. Clyburn, James E. [D-SC-6] | D | SC | 2010-06-10 | 0 |
| 111-hr-4971,C001079 | Greening Food Deserts Act 111-hr-4971 | C001079 | Rep. Cao, Anh "Joseph" [R-LA-2] | R | LA | 2010-06-10 | 0 |
| 111-hr-4971,M000404 | Greening Food Deserts Act 111-hr-4971 | M000404 | Rep. McDermott, Jim [D-WA-7] | D | WA | 2010-06-10 | 0 |
| 111-hr-4971,B001251 | Greening Food Deserts Act 111-hr-4971 | B001251 | Rep. Butterfield, G. K. [D-NC-1] | D | NC | 2010-06-10 | 0 |
| 111-hr-4971,J000032 | Greening Food Deserts Act 111-hr-4971 | J000032 | Rep. Jackson Lee, Sheila [D-TX-18] | D | TX | 2010-06-10 | 0 |
| 111-hr-4971,R000581 | Greening Food Deserts Act 111-hr-4971 | R000581 | Rep. Richardson, Laura [D-CA-37] | D | CA | 2010-06-10 | 0 |
| 111-hr-4971,L000287 | Greening Food Deserts Act 111-hr-4971 | L000287 | Rep. Lewis, John [D-GA-5] | D | GA | 2010-06-10 | 0 |
| 111-hr-4971,S000185 | Greening Food Deserts Act 111-hr-4971 | S000185 | Rep. Scott, Robert C. "Bobby" [D-VA-3] | D | VA | 2010-06-10 | 0 |
| 111-hr-4971,B001227 | Greening Food Deserts Act 111-hr-4971 | B001227 | Rep. Brady, Robert A. [D-PA-1] | D | PA | 2010-05-04 | 0 |
| 111-hr-4971,B000490 | Greening Food Deserts Act 111-hr-4971 | B000490 | Rep. Bishop, Sanford D., Jr. [D-GA-2] | D | GA | 2010-05-04 | 0 |
| 111-hr-4971,C001061 | Greening Food Deserts Act 111-hr-4971 | C001061 | Rep. Cleaver, Emanuel [D-MO-5] | D | MO | 2010-05-04 | 0 |
| 111-hr-4971,R000053 | Greening Food Deserts Act 111-hr-4971 | R000053 | Rep. Rangel, Charles B. [D-NY-15] | D | NY | 2010-05-04 | 0 |
| 111-hr-4971,F000043 | Greening Food Deserts Act 111-hr-4971 | F000043 | Rep. Fattah, Chaka [D-PA-2] | D | PA | 2010-05-04 | 0 |
| 111-hr-4971,T000193 | Greening Food Deserts Act 111-hr-4971 | T000193 | Rep. Thompson, Bennie G. [D-MS-2] | D | MS | 2010-04-20 | 0 |
| 111-hr-4971,Y000062 | Greening Food Deserts Act 111-hr-4971 | Y000062 | Rep. Yarmuth, John A. [D-KY-3] | D | KY | 2010-04-20 | 0 |
| 111-hr-4971,K000180 | Greening Food Deserts Act 111-hr-4971 | K000180 | Rep. Kilpatrick, Carolyn C. [D-MI-13] | D | MI | 2010-03-25 | 1 |
| 111-hr-4971,F000455 | Greening Food Deserts Act 111-hr-4971 | F000455 | Rep. Fudge, Marcia L. [D-OH-11] | D | OH | 2010-03-25 | 1 |
| 111-hr-4971,J000283 | Greening Food Deserts Act 111-hr-4971 | J000283 | Rep. Jackson, Jesse L., Jr. [D-IL-2] | D | IL | 2010-03-25 | 1 |
| 111-hr-4971,M001160 | Greening Food Deserts Act 111-hr-4971 | M001160 | Rep. Moore, Gwen [D-WI-4] | D | WI | 2010-03-25 | 1 |
| 111-hr-4971,V000081 | Greening Food Deserts Act 111-hr-4971 | V000081 | Rep. Velazquez, Nydia M. [D-NY-12] | D | NY | 2010-03-25 | 1 |
| 111-hr-4971,L000551 | Greening Food Deserts Act 111-hr-4971 | L000551 | Rep. Lee, Barbara [D-CA-9] | D | CA | 2010-03-25 | 1 |
| 111-hr-4971,C000984 | Greening Food Deserts Act 111-hr-4971 | C000984 | Rep. Cummings, Elijah E. [D-MD-7] | D | MD | 2010-03-25 | 1 |
| 111-hr-4971,N000015 | Greening Food Deserts Act 111-hr-4971 | N000015 | Rep. Neal, Richard E. [D-MA-2] | D | MA | 2010-03-25 | 1 |
| 111-hr-4971,R000486 | Greening Food Deserts Act 111-hr-4971 | R000486 | Rep. Roybal-Allard, Lucille [D-CA-34] | D | CA | 2010-03-25 | 1 |
| 111-hr-4971,C001049 | Greening Food Deserts Act 111-hr-4971 | C001049 | Rep. Clay, Wm. Lacy [D-MO-1] | D | MO | 2010-03-25 | 1 |
| 111-hr-4971,R000515 | Greening Food Deserts Act 111-hr-4971 | R000515 | Rep. Rush, Bobby L. [D-IL-1] | D | IL | 2010-03-25 | 1 |
| 111-hr-4971,D000096 | Greening Food Deserts Act 111-hr-4971 | D000096 | Rep. Davis, Danny K. [D-IL-7] | D | IL | 2010-03-25 | 1 |
| 111-hr-4971,R000577 | Greening Food Deserts Act 111-hr-4971 | R000577 | Rep. Ryan, Tim [D-OH-17] | D | OH | 2010-03-25 | 1 |
| 111-hr-4971,M000312 | Greening Food Deserts Act 111-hr-4971 | M000312 | Rep. McGovern, James P. [D-MA-3] | D | MA | 2010-03-25 | 1 |
| 111-hr-4971,K000336 | Greening Food Deserts Act 111-hr-4971 | K000336 | Rep. Kucinich, Dennis J. [D-OH-10] | D | OH | 2010-03-25 | 1 |
| 111-hr-4971,K000172 | Greening Food Deserts Act 111-hr-4971 | K000172 | Rep. Kildee, Dale E. [D-MI-5] | D | MI | 2010-03-25 | 1 |
| 111-hr-4971,H001040 | Greening Food Deserts Act 111-hr-4971 | H001040 | Rep. Hare, Phil [D-IL-17] | D | IL | 2010-03-25 | 1 |
| 111-hr-4971,S001174 | Greening Food Deserts Act 111-hr-4971 | S001174 | Rep. Sutton, Betty [D-OH-13] | D | OH | 2010-03-25 | 1 |
| 111-hr-4971,T000469 | Greening Food Deserts Act 111-hr-4971 | T000469 | Rep. Tonko, Paul [D-NY-21] | D | NY | 2010-03-25 | 1 |
| 111-hr-4971,K000008 | Greening Food Deserts Act 111-hr-4971 | K000008 | Rep. Kanjorski, Paul E. [D-PA-11] | D | PA | 2010-03-25 | 1 |
| 111-hr-4971,M001168 | Greening Food Deserts Act 111-hr-4971 | M001168 | Rep. Murphy, Patrick J. [D-PA-8] | D | PA | 2010-03-25 | 1 |
| 111-hr-4971,S000344 | Greening Food Deserts Act 111-hr-4971 | S000344 | Rep. Sherman, Brad [D-CA-27] | D | CA | 2010-03-25 | 1 |
| 111-hr-4971,D000608 | Greening Food Deserts Act 111-hr-4971 | D000608 | Rep. Dahlkemper, Kathleen A. [D-PA-3] | D | PA | 2010-03-25 | 1 |
Advanced export
JSON shape: default, array, newline-delimited, object
CREATE TABLE legislation_cosponsors (
bill_id TEXT NOT NULL REFERENCES legislation(bill_id),
bioguide_id TEXT NOT NULL,
full_name TEXT,
party TEXT,
state TEXT,
sponsorship_date TEXT,
is_original_cosponsor INTEGER,
PRIMARY KEY (bill_id, bioguide_id)
);
CREATE INDEX idx_lc_bioguide ON legislation_cosponsors(bioguide_id);
CREATE INDEX idx_lc_bill ON legislation_cosponsors(bill_id);
CREATE INDEX idx_lc_original ON legislation_cosponsors(is_original_cosponsor);